createdAt,value
2022-11-09T00:01:29.378Z,36.10
2022-11-09T00:04:00.099Z,37.20
2022-11-09T00:06:29.609Z,35.40
2022-11-09T00:09:02.649Z,37.40
2022-11-09T00:11:34.396Z,38.10
2022-11-09T00:14:02.487Z,37.00
2022-11-09T00:16:30.741Z,36.70
2022-11-09T00:18:58.958Z,38.10
2022-11-09T00:21:27.356Z,36.30
2022-11-09T00:23:55.557Z,37.30
2022-11-09T00:26:24.175Z,38.30
2022-11-09T00:28:52.736Z,36.00
2022-11-09T00:31:22.598Z,36.90
2022-11-09T00:33:56.861Z,40.00
2022-11-09T00:36:27.260Z,38.50
2022-11-09T00:39:01.203Z,36.20
2022-11-09T00:41:29.458Z,37.60
2022-11-09T00:43:57.637Z,40.70
2022-11-09T00:46:26.449Z,39.60
2022-11-09T00:48:56.314Z,37.30
2022-11-09T00:51:24.525Z,38.10
2022-11-09T00:53:55.120Z,38.90
2022-11-09T00:56:23.591Z,38.40
2022-11-09T00:58:58.153Z,39.40
2022-11-09T01:01:26.377Z,36.40
2022-11-09T01:03:54.494Z,38.60
2022-11-09T01:06:26.003Z,36.90
2022-11-09T01:08:54.481Z,36.30
2022-11-09T01:11:23.851Z,38.60
2022-11-09T01:13:52.308Z,35.30
2022-11-09T01:16:24.029Z,35.90
2022-11-09T01:18:56.958Z,37.50
2022-11-09T01:21:26.564Z,35.50
2022-11-09T01:23:55.862Z,35.30
2022-11-09T01:26:24.676Z,34.90
2022-11-09T01:28:52.875Z,33.80
2022-11-09T01:31:22.261Z,36.60
2022-11-09T01:33:50.587Z,34.80
2022-11-09T01:36:21.779Z,35.00
2022-11-09T01:38:50.580Z,35.90
2022-11-09T01:41:23.500Z,33.90
2022-11-09T01:44:11.642Z,34.50
2022-11-09T01:46:52.258Z,35.30
2022-11-09T01:49:47.186Z,35.30
2022-11-09T01:52:38.241Z,33.50
2022-11-09T01:55:18.148Z,35.60
2022-11-09T01:57:55.025Z,33.40
2022-11-09T02:00:23.610Z,32.50
2022-11-09T02:03:04.679Z,34.50
2022-11-09T02:05:35.401Z,36.10
2022-11-09T02:08:07.239Z,34.30
2022-11-09T02:10:55.381Z,34.50
2022-11-09T02:13:27.058Z,37.50
2022-11-09T02:15:55.217Z,34.10
2022-11-09T02:18:23.366Z,36.60
2022-11-09T02:20:57.372Z,32.70
2022-11-09T02:23:27.740Z,34.70
2022-11-09T02:26:08.130Z,35.40
2022-11-09T02:28:38.829Z,34.40
2022-11-09T02:31:11.105Z,37.30
2022-11-09T02:33:54.739Z,34.30
2022-11-09T02:36:24.140Z,36.90
2022-11-09T02:38:54.738Z,33.30
2022-11-09T02:41:24.571Z,34.70
2022-11-09T02:43:55.179Z,36.50
2022-11-09T02:46:34.326Z,36.40
2022-11-09T02:49:03.102Z,36.10
2022-11-09T02:51:31.246Z,34.00
2022-11-09T02:53:59.520Z,36.20
2022-11-09T02:56:28.040Z,35.20
2022-11-09T02:58:56.536Z,35.70
2022-11-09T03:01:24.725Z,36.60
2022-11-09T03:03:52.880Z,35.70
2022-11-09T03:06:20.932Z,34.90
2022-11-09T03:08:49.585Z,36.20
2022-11-09T03:11:18.151Z,37.00
2022-11-09T03:13:46.299Z,35.00
2022-11-09T03:16:14.289Z,36.10
2022-11-09T03:18:42.458Z,37.80
2022-11-09T03:21:10.685Z,38.00
2022-11-09T03:23:38.889Z,35.90
2022-11-09T03:26:07.171Z,38.40
2022-11-09T03:28:35.305Z,38.00
2022-11-09T03:31:03.430Z,34.70
2022-11-09T03:33:31.767Z,36.20
2022-11-09T03:35:59.935Z,36.90
2022-11-09T03:38:28.304Z,40.70
2022-11-09T03:40:56.686Z,36.90
2022-11-09T03:43:24.820Z,38.30
2022-11-09T03:45:52.967Z,35.50
2022-11-09T03:48:21.167Z,39.10
2022-11-09T03:50:49.436Z,36.50
2022-11-09T03:53:17.779Z,36.80
2022-11-09T03:55:46.606Z,36.60
2022-11-09T03:58:14.728Z,38.00
2022-11-09T04:00:42.978Z,38.70
2022-11-09T04:03:11.441Z,37.70
2022-11-09T04:05:39.475Z,38.30
2022-11-09T04:08:07.676Z,38.90
2022-11-09T04:10:35.919Z,38.20
2022-11-09T04:13:04.074Z,40.70
2022-11-09T04:15:32.087Z,38.30
2022-11-09T04:18:02.312Z,39.20
2022-11-09T04:20:31.664Z,37.00
2022-11-09T04:23:05.286Z,37.50
2022-11-09T04:25:37.911Z,40.60
2022-11-09T04:28:07.829Z,41.20
2022-11-09T04:30:37.772Z,38.20
2022-11-09T04:33:06.341Z,37.20
2022-11-09T04:35:35.336Z,38.60
2022-11-09T04:38:08.807Z,38.50
2022-11-09T04:40:37.278Z,40.50
2022-11-09T04:43:07.851Z,40.00
2022-11-09T04:45:36.022Z,38.60
2022-11-09T04:48:06.747Z,40.80
2022-11-09T04:50:35.036Z,40.30
2022-11-09T04:53:12.114Z,39.70
2022-11-09T04:55:41.093Z,39.90
2022-11-09T04:58:09.514Z,40.60
2022-11-09T05:00:38.543Z,39.20
2022-11-09T05:03:07.327Z,39.60
2022-11-09T05:05:37.361Z,40.40
2022-11-09T05:08:06.536Z,40.90
2022-11-09T05:10:36.160Z,39.70
2022-11-09T05:13:24.167Z,40.80
2022-11-09T05:15:52.364Z,44.00
2022-11-09T05:18:20.533Z,41.80
2022-11-09T05:20:48.676Z,41.40
2022-11-09T05:23:35.652Z,40.60
2022-11-09T05:26:04.038Z,43.20
2022-11-09T05:28:32.294Z,43.50
2022-11-09T05:31:00.426Z,41.40
2022-11-09T05:33:28.860Z,42.80
2022-11-09T05:35:57.959Z,44.70
2022-11-09T05:38:26.121Z,44.70
2022-11-09T05:40:54.992Z,43.50
2022-11-09T05:43:23.198Z,44.70
2022-11-09T05:45:51.486Z,41.20
2022-11-09T05:48:20.007Z,47.20
2022-11-09T05:50:48.183Z,43.30
2022-11-09T05:53:16.444Z,44.80
2022-11-09T05:55:44.604Z,44.30
2022-11-09T05:58:12.858Z,46.00
2022-11-09T06:00:41.368Z,44.30
2022-11-09T06:03:11.160Z,42.80
2022-11-09T06:05:41.164Z,44.80
2022-11-09T06:08:15.439Z,42.30
2022-11-09T06:10:43.980Z,44.60
2022-11-09T06:13:12.658Z,44.10
2022-11-09T06:15:40.848Z,44.40
2022-11-09T06:18:09.148Z,44.40
2022-11-09T06:20:37.938Z,43.20
2022-11-09T06:23:06.216Z,41.30
2022-11-09T06:25:34.487Z,43.80
2022-11-09T06:28:02.687Z,41.50
2022-11-09T06:30:33.860Z,41.50
2022-11-09T06:33:03.031Z,41.60
2022-11-09T06:35:31.143Z,41.70
2022-11-09T06:38:00.977Z,43.70
2022-11-09T06:40:29.850Z,42.30
2022-11-09T06:43:01.586Z,43.20
2022-11-09T06:45:30.992Z,42.70
2022-11-09T06:48:04.208Z,39.80
2022-11-09T06:50:33.888Z,40.70
2022-11-09T06:53:06.272Z,41.00
2022-11-09T06:55:35.777Z,40.40
2022-11-09T06:58:09.633Z,39.40
2022-11-09T07:00:38.331Z,40.40
2022-11-09T07:03:06.547Z,40.60
2022-11-09T07:05:40.256Z,42.00
2022-11-09T07:08:08.539Z,38.30
2022-11-09T07:10:37.138Z,41.80
2022-11-09T07:13:07.378Z,35.80
2022-11-09T07:15:37.412Z,39.20
2022-11-09T07:18:08.169Z,36.30
2022-11-09T07:20:37.296Z,37.90
2022-11-09T07:23:05.429Z,40.00
2022-11-09T07:25:33.981Z,38.30
2022-11-09T07:28:08.712Z,36.00
2022-11-09T07:30:37.408Z,39.10
2022-11-09T07:33:14.768Z,37.80
2022-11-09T07:35:43.048Z,38.10
2022-11-09T07:38:11.485Z,39.20
2022-11-09T07:40:40.886Z,37.80
2022-11-09T07:43:10.833Z,38.10
2022-11-09T07:45:39.411Z,36.60
2022-11-09T07:48:10.625Z,38.60
2022-11-09T07:50:40.732Z,37.20
2022-11-09T07:53:12.980Z,37.00
2022-11-09T07:55:42.193Z,36.30
2022-11-09T07:58:15.855Z,35.80
2022-11-09T08:00:44.544Z,37.70
2022-11-09T08:03:12.753Z,37.00
2022-11-09T08:05:41.268Z,32.90
2022-11-09T08:08:12.224Z,36.30
2022-11-09T08:10:40.811Z,36.20
2022-11-09T08:13:14.299Z,34.40
2022-11-09T08:15:42.866Z,36.90
2022-11-09T08:18:17.651Z,34.00
2022-11-09T08:20:46.886Z,33.90
2022-11-09T08:23:17.196Z,36.20
2022-11-09T08:25:45.518Z,36.20
2022-11-09T08:28:16.257Z,35.20
2022-11-09T08:30:45.900Z,36.80
2022-11-09T08:33:14.402Z,35.60
2022-11-09T08:35:42.612Z,33.60
2022-11-09T08:38:11.004Z,36.00
2022-11-09T08:40:39.214Z,35.60
2022-11-09T08:43:08.846Z,33.90
2022-11-09T08:45:38.968Z,32.90
2022-11-09T08:48:09.689Z,32.40
2022-11-09T08:50:38.004Z,34.90
2022-11-09T08:53:08.455Z,33.20
2022-11-09T08:55:37.112Z,34.50
2022-11-09T08:58:05.301Z,32.20
2022-11-09T09:00:33.564Z,34.10
2022-11-09T09:03:07.724Z,32.40
2022-11-09T09:05:37.419Z,33.30
2022-11-09T09:08:07.529Z,32.60
2022-11-09T09:10:35.747Z,32.00
2022-11-09T09:13:04.616Z,31.70
2022-11-09T09:15:33.132Z,33.20
2022-11-09T09:18:02.930Z,30.70
2022-11-09T09:20:31.918Z,29.90
2022-11-09T09:23:01.137Z,32.70
2022-11-09T09:25:29.611Z,30.50
2022-11-09T09:27:58.253Z,32.00
2022-11-09T09:30:26.879Z,32.20
2022-11-09T09:33:02.061Z,31.80
2022-11-09T09:35:30.259Z,32.10
2022-11-09T09:37:58.710Z,31.80
2022-11-09T09:40:55.636Z,31.10
2022-11-09T09:43:46.849Z,31.30
2022-11-09T09:46:17.989Z,29.60
2022-11-09T09:48:51.900Z,30.30
2022-11-09T09:51:26.629Z,30.60
2022-11-09T09:54:01.895Z,29.50
2022-11-09T09:56:39.050Z,29.70
2022-11-09T09:59:33.819Z,31.10
2022-11-09T10:02:02.355Z,32.40
2022-11-09T10:04:38.498Z,32.60
2022-11-09T10:07:27.367Z,30.30
2022-11-09T10:10:22.051Z,29.70
2022-11-09T10:13:09.059Z,30.30
2022-11-09T10:15:53.414Z,31.10
2022-11-09T10:18:55.993Z,33.50
2022-11-09T10:21:48.127Z,33.30
2022-11-09T10:24:36.875Z,31.90
2022-11-09T10:27:43.394Z,31.90
2022-11-09T10:30:18.059Z,32.70
2022-11-09T10:32:51.959Z,32.70
2022-11-09T10:35:25.609Z,33.20
2022-11-09T10:37:55.414Z,33.10
2022-11-09T10:40:26.672Z,31.60
2022-11-09T10:43:07.789Z,32.60
2022-11-09T10:45:38.801Z,31.60
2022-11-09T10:48:10.939Z,32.30
2022-11-09T10:50:48.496Z,33.10
2022-11-09T10:53:24.068Z,31.40
2022-11-09T10:56:20.716Z,31.40
2022-11-09T10:58:53.111Z,30.40
2022-11-09T11:01:25.635Z,29.60
2022-11-09T11:03:57.795Z,29.40
2022-11-09T11:06:26.001Z,29.40
2022-11-09T11:09:06.214Z,29.10
2022-11-09T11:11:37.383Z,29.40
2022-11-09T11:14:23.337Z,28.80
2022-11-09T11:16:53.381Z,32.50
2022-11-09T11:19:41.956Z,27.70
2022-11-09T11:22:19.629Z,28.30
2022-11-09T11:24:55.487Z,27.70
2022-11-09T11:27:49.997Z,28.90
2022-11-09T11:30:36.701Z,27.10
2022-11-09T11:33:19.289Z,27.40
2022-11-09T11:36:04.880Z,26.70
2022-11-09T11:38:48.866Z,27.50
2022-11-09T11:41:28.823Z,26.60
2022-11-09T11:44:31.546Z,26.80
2022-11-09T11:47:15.279Z,26.20
2022-11-09T11:49:54.361Z,26.00
2022-11-09T11:52:40.456Z,25.90
2022-11-09T11:55:42.877Z,27.00
2022-11-09T11:58:29.123Z,26.40
2022-11-09T12:01:16.208Z,26.00
2022-11-09T12:04:11.740Z,26.20
2022-11-09T12:07:15.031Z,25.30
2022-11-09T12:09:58.310Z,25.60
2022-11-09T12:12:44.211Z,25.90
2022-11-09T12:15:51.036Z,25.10
2022-11-09T12:18:31.160Z,25.00
2022-11-09T12:21:29.112Z,25.00
2022-11-09T12:24:21.638Z,24.40
2022-11-09T12:27:31.682Z,24.20
2022-11-09T12:30:22.530Z,24.10
2022-11-09T12:33:11.527Z,23.30
2022-11-09T12:36:16.543Z,23.40
2022-11-09T12:39:11.295Z,23.40
2022-11-09T12:41:40.917Z,23.60
2022-11-09T12:45:00.170Z,24.20
2022-11-09T12:47:36.137Z,24.40
2022-11-09T12:50:05.893Z,24.70
2022-11-09T12:52:34.621Z,25.30
2022-11-09T12:55:05.458Z,26.10
2022-11-09T12:57:33.860Z,23.70
2022-11-09T13:00:02.220Z,24.50
2022-11-09T13:02:35.284Z,24.50
2022-11-09T13:05:07.961Z,25.40
2022-11-09T13:07:46.109Z,24.20
2022-11-09T13:10:36.472Z,25.20
2022-11-09T13:13:07.566Z,25.50
2022-11-09T13:15:38.218Z,26.40
2022-11-09T13:18:26.783Z,26.60
2022-11-09T13:20:57.108Z,26.10
2022-11-09T13:26:31.907Z,25.50
2022-11-09T13:29:15.143Z,26.50
2022-11-09T13:32:22.571Z,26.10
2022-11-09T13:34:55.767Z,26.30
2022-11-09T13:37:42.110Z,27.40
2022-11-09T13:40:32.298Z,29.20
2022-11-09T13:43:00.432Z,26.20
2022-11-09T13:45:46.554Z,25.50
2022-11-09T13:48:22.520Z,28.10
2022-11-09T13:50:56.833Z,26.00
2022-11-09T13:53:37.186Z,25.50
2022-11-09T13:56:32.727Z,25.80
2022-11-09T13:59:07.827Z,26.00
2022-11-09T14:01:46.385Z,27.00
2022-11-09T14:04:40.474Z,27.20
2022-11-09T14:07:31.529Z,29.00
2022-11-09T14:10:24.411Z,26.60
2022-11-09T14:13:17.457Z,27.10
2022-11-09T14:15:45.496Z,26.60
2022-11-09T14:18:24.397Z,27.00
2022-11-09T14:21:33.985Z,27.30
2022-11-09T14:24:24.953Z,25.90
2022-11-09T14:27:23.140Z,27.50
2022-11-09T14:29:56.737Z,27.40
2022-11-09T14:32:27.022Z,26.40
2022-11-09T14:35:34.263Z,30.70
2022-11-09T14:38:17.470Z,27.90
2022-11-09T14:40:48.156Z,32.00
2022-11-09T14:43:34.638Z,28.80
2022-11-09T14:46:21.066Z,31.00
2022-11-09T14:48:53.910Z,27.70
2022-11-09T14:51:32.554Z,29.20
2022-11-09T14:54:01.973Z,30.00
2022-11-09T14:56:31.348Z,28.80
2022-11-09T14:59:06.477Z,26.60
2022-11-09T15:01:34.467Z,28.40
2022-11-09T15:04:13.696Z,35.00
2022-11-09T15:06:55.402Z,31.60
2022-11-09T15:09:33.178Z,31.30
2022-11-09T15:12:02.640Z,32.70
2022-11-09T15:14:34.558Z,31.30
2022-11-09T15:17:28.068Z,31.40
2022-11-09T15:19:58.394Z,32.90
2022-11-09T15:22:53.802Z,32.00
2022-11-09T15:25:31.229Z,34.00
2022-11-09T15:28:02.263Z,33.50
2022-11-09T15:30:32.561Z,33.40
2022-11-09T15:33:01.396Z,34.60
2022-11-09T15:35:29.570Z,32.30
2022-11-09T15:37:57.727Z,34.60
2022-11-09T15:40:26.015Z,35.60
2022-11-09T15:42:54.248Z,35.70
2022-11-09T15:45:22.507Z,34.20
2022-11-09T15:47:55.659Z,39.20
2022-11-09T15:50:26.906Z,37.50
2022-11-09T15:52:55.174Z,34.50
2022-11-09T15:55:23.770Z,38.90
2022-11-09T15:57:55.231Z,38.40
2022-11-09T16:00:23.418Z,36.90
2022-11-09T16:02:51.618Z,36.60
2022-11-09T16:05:20.292Z,37.60
2022-11-09T16:07:54.227Z,35.90
2022-11-09T16:10:27.805Z,37.20
2022-11-09T16:12:57.666Z,36.60
2022-11-09T16:15:26.897Z,36.50
2022-11-09T16:17:55.086Z,35.20
2022-11-09T16:20:23.172Z,36.60
2022-11-09T16:22:51.381Z,34.20
2022-11-09T16:25:20.052Z,35.60
2022-11-09T16:27:50.872Z,34.70
2022-11-09T16:30:20.757Z,35.90
2022-11-09T16:32:48.796Z,39.60
2022-11-09T16:35:27.383Z,36.20
2022-11-09T16:37:58.788Z,35.60
2022-11-09T16:40:29.371Z,35.70
2022-11-09T16:42:59.505Z,35.90
2022-11-09T16:45:32.127Z,38.80
2022-11-09T16:48:05.906Z,35.40
2022-11-09T16:50:34.108Z,37.50
2022-11-09T16:53:02.336Z,38.90
2022-11-09T16:55:30.644Z,37.70
2022-11-09T16:57:59.762Z,38.30
2022-11-09T17:00:42.760Z,36.90
2022-11-09T17:03:17.236Z,38.20
2022-11-09T17:05:46.150Z,38.60
2022-11-09T17:08:15.385Z,41.20
2022-11-09T17:10:46.930Z,49.20
2022-11-09T17:13:15.558Z,41.70
2022-11-09T17:15:46.238Z,41.40
2022-11-09T17:18:15.596Z,40.50
2022-11-09T17:20:51.422Z,38.80
2022-11-09T17:23:20.295Z,40.40
2022-11-09T17:26:04.003Z,41.20
2022-11-09T17:28:32.824Z,42.50
2022-11-09T17:31:07.621Z,45.70
2022-11-09T17:33:36.231Z,45.80
2022-11-09T17:36:07.646Z,46.20
2022-11-09T17:38:36.283Z,42.80
2022-11-09T17:41:08.214Z,43.10
2022-11-09T17:43:38.450Z,43.20
2022-11-09T17:46:13.895Z,43.50
2022-11-09T17:48:43.941Z,44.50
2022-11-09T17:51:14.076Z,42.80
2022-11-09T17:53:42.819Z,43.20
2022-11-09T17:56:11.688Z,44.00
2022-11-09T17:58:42.681Z,42.80
2022-11-09T18:01:16.428Z,44.30
2022-11-09T18:03:44.794Z,43.40
2022-11-09T18:06:19.686Z,42.80
2022-11-09T18:09:10.859Z,45.70
2022-11-09T18:11:37.446Z,45.50
2022-11-09T18:14:05.874Z,46.30
2022-11-09T18:16:34.113Z,45.30
2022-11-09T18:19:03.787Z,41.30
2022-11-09T18:21:33.771Z,48.10
2022-11-09T18:24:05.246Z,41.80
2022-11-09T18:26:33.446Z,45.40
2022-11-09T18:29:01.633Z,43.40
2022-11-09T18:31:29.978Z,43.30
2022-11-09T18:33:58.196Z,43.30
2022-11-09T18:36:28.136Z,41.40
2022-11-09T18:38:56.456Z,44.50
2022-11-09T18:41:25.346Z,45.30
2022-11-09T18:43:54.516Z,46.40
2022-11-09T18:46:22.792Z,44.90
2022-11-09T18:48:52.398Z,45.30
2022-11-09T18:51:21.082Z,44.90
2022-11-09T18:53:49.972Z,46.60
2022-11-09T18:56:24.299Z,45.70
2022-11-09T18:58:54.798Z,46.40
2022-11-09T19:01:26.001Z,45.40
2022-11-09T19:03:59.564Z,47.10
2022-11-09T19:06:28.807Z,49.90
2022-11-09T19:09:15.959Z,46.80
2022-11-09T19:11:44.159Z,47.40
2022-11-09T19:14:12.438Z,49.40
2022-11-09T19:16:40.603Z,51.10
2022-11-09T19:19:13.457Z,47.40
2022-11-09T19:21:56.098Z,50.20
2022-11-09T19:24:34.078Z,54.00
2022-11-09T19:27:02.343Z,50.30
2022-11-09T19:29:30.597Z,50.60
2022-11-09T19:31:59.453Z,49.70
2022-11-09T19:34:27.639Z,50.40
2022-11-09T19:36:55.742Z,48.70
2022-11-09T19:39:24.067Z,48.80
2022-11-09T19:41:52.157Z,50.90
2022-11-09T19:44:20.488Z,49.70
2022-11-09T19:46:48.734Z,52.60
2022-11-09T19:49:16.916Z,51.00
2022-11-09T19:51:44.958Z,50.20
2022-11-09T19:54:14.086Z,50.80
2022-11-09T19:56:42.655Z,50.50
2022-11-09T19:59:14.877Z,53.30
2022-11-09T20:01:43.616Z,55.40
2022-11-09T20:04:12.447Z,54.80
2022-11-09T20:06:41.184Z,53.00
2022-11-09T20:09:09.506Z,54.10
2022-11-09T20:11:57.999Z,53.20
2022-11-09T20:14:26.259Z,50.90
2022-11-09T20:16:55.481Z,52.00
2022-11-09T20:19:25.746Z,52.90
2022-11-09T20:21:54.011Z,53.20
2022-11-09T20:24:22.261Z,54.10
2022-11-09T20:26:50.487Z,54.10
2022-11-09T20:29:18.688Z,51.50
2022-11-09T20:31:46.839Z,54.90
2022-11-09T20:34:15.080Z,51.90
2022-11-09T20:36:43.322Z,51.40
2022-11-09T20:39:11.612Z,50.60
2022-11-09T20:41:39.853Z,51.50
2022-11-09T20:44:08.366Z,51.00
2022-11-09T20:46:37.083Z,52.30
2022-11-09T20:49:05.643Z,54.00
2022-11-09T20:51:34.087Z,55.80
2022-11-09T20:54:06.893Z,55.30
2022-11-09T20:56:36.775Z,52.10
2022-11-09T20:59:05.099Z,53.80
2022-11-09T21:01:33.467Z,56.60
2022-11-09T21:04:02.240Z,56.80
2022-11-09T21:06:31.432Z,57.70
2022-11-09T21:09:01.443Z,57.10
2022-11-09T21:11:35.877Z,58.50
2022-11-09T21:14:04.284Z,57.40
2022-11-09T21:16:32.581Z,54.70
2022-11-09T21:19:00.596Z,56.40
2022-11-09T21:21:35.100Z,57.60
2022-11-09T21:24:23.805Z,56.60
2022-11-09T21:27:10.580Z,56.10
2022-11-09T21:29:50.736Z,56.70
2022-11-09T21:32:30.965Z,56.10
2022-11-09T21:34:59.086Z,56.10
2022-11-09T21:37:27.325Z,60.20
2022-11-09T21:39:55.535Z,56.60
2022-11-09T21:42:23.671Z,57.60
2022-11-09T21:44:51.720Z,54.60
2022-11-09T21:47:20.101Z,55.90
2022-11-09T21:49:48.274Z,55.00
2022-11-09T21:52:16.951Z,57.70
2022-11-09T21:54:45.226Z,56.10
2022-11-09T21:57:13.413Z,63.10
2022-11-09T21:59:41.622Z,61.50
2022-11-09T22:02:11.188Z,59.70
2022-11-09T22:04:39.476Z,57.00
2022-11-09T22:07:07.807Z,62.10
2022-11-09T22:10:06.129Z,56.50
2022-11-09T22:12:43.613Z,56.60
2022-11-09T22:15:30.826Z,59.80
2022-11-09T22:17:59.062Z,60.50
2022-11-09T22:20:45.903Z,58.60
2022-11-09T22:23:14.135Z,59.60
2022-11-09T22:25:47.761Z,58.80
2022-11-09T22:28:16.799Z,62.20
2022-11-09T22:30:44.887Z,57.30
2022-11-09T22:33:13.124Z,60.00
2022-11-09T22:35:41.298Z,59.20
2022-11-09T22:38:09.636Z,60.10
2022-11-09T22:40:37.598Z,60.60
2022-11-09T22:43:05.956Z,59.90
2022-11-09T22:45:34.398Z,60.30
2022-11-09T22:48:02.879Z,60.80
2022-11-09T22:50:31.357Z,57.30
2022-11-09T22:53:03.708Z,58.90
2022-11-09T22:55:32.829Z,59.70
2022-11-09T22:58:01.422Z,56.40
2022-11-09T23:00:29.888Z,59.50
2022-11-09T23:02:58.575Z,58.50
2022-11-09T23:05:27.066Z,59.40
2022-11-09T23:07:56.010Z,60.70
2022-11-09T23:10:24.429Z,59.70
2022-11-09T23:12:52.701Z,63.20
2022-11-09T23:15:21.293Z,63.10
2022-11-09T23:18:08.242Z,60.10
2022-11-09T23:20:36.357Z,58.90
2022-11-09T23:23:04.490Z,58.10
2022-11-09T23:25:52.178Z,62.20
2022-11-09T23:28:20.862Z,65.00
2022-11-09T23:30:49.442Z,60.80
2022-11-09T23:33:17.611Z,61.80
2022-11-09T23:35:45.797Z,62.10
2022-11-09T23:38:13.963Z,60.70
2022-11-09T23:40:42.683Z,59.60
2022-11-09T23:43:14.777Z,62.00
2022-11-09T23:45:43.299Z,60.90
2022-11-09T23:48:19.745Z,60.70
2022-11-09T23:50:48.346Z,61.90
2022-11-09T23:53:16.727Z,62.00
2022-11-09T23:55:45.751Z,62.80
2022-11-09T23:58:14.299Z,57.30
